Wetterdaten: aktuell Donnerstag, 23.05.2019 04:18
Datum Zeit Temperatur Feuchte A. Luftdruck Regen Wind Richtung Richtung Taupunkt Windchill Windben
23.05.2019 04:18 5,7 C 99 % 1019,7 hPa 0,0 l/m 1,5 km/h (1 Bft) W 267 5,6 C 5,7 C 9,7 km/h (2 Bft)
23.05.2019 04:17 5,7 C 99 % 1019,7 hPa 0,0 l/m 1,8 km/h (1 Bft) NW 305 5,6 C 5,7 C 6,4 km/h (2 Bft)
23.05.2019 04:16 5,7 C 99 % 1019,7 hPa 0,0 l/m 0,7 km/h (0 Bft) NW 305 5,6 C 5,7 C 4,8 km/h (1 Bft)
23.05.2019 04:15 5,7 C 99 % 1019,6 hPa 0,0 l/m 0,0 km/h (0 Bft) W-NW 293 5,6 C 5,7 C 0,0 km/h (0 Bft)
23.05.2019 04:14 5,7 C 99 % 1019,8 hPa 0,0 l/m 0,0 km/h (0 Bft) W-NW 293 5,6 C 5,7 C 0,0 km/h (0 Bft)
23.05.2019 04:13 5,7 C 99 % 1019,7 hPa 0,0 l/m 0,6 km/h (0 Bft) W-NW 293 5,6 C 5,7 C 3,2 km/h (1 Bft)
23.05.2019 04:12 5,7 C 99 % 1019,8 hPa 0,0 l/m 0,0 km/h (0 Bft) W-NW 286 5,6 C 5,7 C 0,0 km/h (0 Bft)
23.05.2019 04:11 5,8 C 99 % 1019,8 hPa 0,0 l/m 0,0 km/h (0 Bft) W-NW 286 5,7 C 5,8 C 0,0 km/h (0 Bft)
23.05.2019 04:10 5,8 C 99 % 1019,8 hPa 0,0 l/m 0,0 km/h (0 Bft) W-NW 286 5,7 C 5,8 C 0,0 km/h (0 Bft)
23.05.2019 04:09 5,8 C 99 % 1019,8 hPa 0,0 l/m 0,1 km/h (0 Bft) W-NW 286 5,7 C 5,8 C 1,6 km/h (1 Bft)
23.05.2019 04:08 5,8 C 99 % 1019,7 hPa 0,0 l/m 0,0 km/h (0 Bft) W-NW 286 5,7 C 5,8 C 0,0 km/h (0 Bft)
23.05.2019 04:07 5,8 C 99 % 1019,8 hPa 0,0 l/m 0,3 km/h (0 Bft) W-NW 286 5,7 C 5,8 C 1,6 km/h (1 Bft)
23.05.2019 04:06 5,8 C 99 % 1019,8 hPa 0,0 l/m 1,1 km/h (1 Bft) W-NW 286 5,7 C 5,8 C 3,2 km/h (1 Bft)
23.05.2019 04:05 5,8 C 99 % 1019,7 hPa 0,0 l/m 2,0 km/h (1 Bft) W 281 5,7 C 5,8 C 6,4 km/h (2 Bft)
23.05.2019 04:04 5,8 C 99 % 1019,8 hPa 0,0 l/m 0,2 km/h (0 Bft) NW 314 5,7 C 5,8 C 1,6 km/h (1 Bft)
23.05.2019 04:03 5,8 C 99 % 1019,7 hPa 0,0 l/m 0,5 km/h (0 Bft) NW 314 5,7 C 5,8 C 4,8 km/h (1 Bft)
23.05.2019 04:02 5,8 C 99 % 1019,7 hPa 0,0 l/m 1,5 km/h (1 Bft) NW 314 5,7 C 5,8 C 6,4 km/h (2 Bft)
23.05.2019 04:00 5,8 C 99 % 1019,7 hPa 0,0 l/m 0,3 km/h (0 Bft) N-NW 344 5,7 C 5,8 C 3,2 km/h (1 Bft)
23.05.2019 03:59 5,8 C 99 % 1019,7 hPa 0,0 l/m 0,6 km/h (0 Bft) N-NW 344 5,7 C 5,8 C 3,2 km/h (1 Bft)
23.05.2019 03:58 5,9 C 99 % 1019,7 hPa 0,0 l/m 0,0 km/h (0 Bft) N 355 5,8 C 5,9 C 0,0 km/h (0 Bft)
23.05.2019 03:57 5,9 C 99 % 1019,7 hPa 0,0 l/m 2,2 km/h (1 Bft) N 355 5,8 C 5,9 C 8,0 km/h (2 Bft)
23.05.2019 03:56 5,9 C 99 % 1019,7 hPa 0,0 l/m 1,5 km/h (1 Bft) W-NW 288 5,8 C 5,9 C 6,4 km/h (2 Bft)
23.05.2019 03:55 5,9 C 99 % 1019,7 hPa 0,0 l/m 0,3 km/h (0 Bft) S 180 5,8 C 5,9 C 1,6 km/h (1 Bft)
23.05.2019 03:54 5,9 C 99 % 1019,7 hPa 0,0 l/m 0,1 km/h (0 Bft) S 180 5,8 C 5,9 C 1,6 km/h (1 Bft)
23.05.2019 03:53 6,0 C 99 % 1019,6 hPa 0,0 l/m 0,1 km/h (0 Bft) S 180 5,9 C 6,0 C 1,6 km/h (1 Bft)
23.05.2019 03:52 6,0 C 99 % 1019,7 hPa 0,0 l/m 0,0 km/h (0 Bft) S 180 5,9 C 6,0 C 0,0 km/h (0 Bft)
23.05.2019 03:51 6,1 C 99 % 1019,7 hPa 0,0 l/m 1,2 km/h (1 Bft) S 180 6,0 C 6,1 C 4,8 km/h (1 Bft)
23.05.2019 03:50 6,1 C 99 % 1019,7 hPa 0,0 l/m 3,3 km/h (1 Bft) O-NO 70 6,0 C 6,1 C 8,0 km/h (2 Bft)
23.05.2019 03:49 6,1 C 99 % 1019,7 hPa 0,0 l/m 3,2 km/h (1 Bft) O 82 6,0 C 6,1 C 11,3 km/h (2 Bft)
23.05.2019 03:48 6,1 C 99 % 1019,7 hPa 0,0 l/m 0,0 km/h (0 Bft) NW 313 6,0 C 6,1 C 0,0 km/h (0 Bft)
23.05.2019 03:47 6,1 C 99 % 1019,6 hPa 0,0 l/m 0,1 km/h (0 Bft) NW 313 6,0 C 6,1 C 1,6 km/h (1 Bft)
23.05.2019 03:46 6,1 C 99 % 1019,7 hPa 0,0 l/m 2,0 km/h (1 Bft) NW 313 6,0 C 6,1 C 4,8 km/h (1 Bft)
23.05.2019 03:45 6,1 C 99 % 1019,7 hPa 0,0 l/m 2,2 km/h (1 Bft) W 267 6,0 C 6,1 C 6,4 km/h (2 Bft)
23.05.2019 03:44 6,1 C 99 % 1019,7 hPa 0,0 l/m 0,1 km/h (0 Bft) W 267 6,0 C 6,1 C 1,6 km/h (1 Bft)
23.05.2019 03:43 6,1 C 99 % 1019,6 hPa 0,0 l/m 0,0 km/h (0 Bft) W-NW 283 6,0 C 6,1 C 0,0 km/h (0 Bft)
23.05.2019 03:42 6,1 C 99 % 1019,6 hPa 0,0 l/m 0,0 km/h (0 Bft) W-NW 283 6,0 C 6,1 C 0,0 km/h (0 Bft)
23.05.2019 03:41 6,1 C 99 % 1019,6 hPa 0,0 l/m 1,6 km/h (1 Bft) W-NW 283 6,0 C 6,1 C 6,4 km/h (2 Bft)
23.05.2019 03:40 6,1 C 99 % 1019,6 hPa 0,0 l/m 0,0 km/h (0 Bft) SW 224 6,0 C 6,1 C 0,0 km/h (0 Bft)
23.05.2019 03:39 6,1 C 99 % 1019,6 hPa 0,0 l/m 0,1 km/h (0 Bft) SW 224 6,0 C 6,1 C 1,6 km/h (1 Bft)
23.05.2019 03:38 6,1 C 99 % 1019,7 hPa 0,0 l/m 1,7 km/h (1 Bft) SW 224 6,0 C 6,1 C 4,8 km/h (1 Bft)
23.05.2019 03:37 6,1 C 99 % 1019,6 hPa 0,0 l/m 2,1 km/h (1 Bft) W-SW 250 6,0 C 6,1 C 8,0 km/h (2 Bft)
23.05.2019 03:36 6,1 C 99 % 1019,6 hPa 0,0 l/m 0,2 km/h (0 Bft) W 270 6,0 C 6,1 C 1,6 km/h (1 Bft)
23.05.2019 03:35 6,1 C 99 % 1019,6 hPa 0,0 l/m 0,3 km/h (0 Bft) W 270 6,0 C 6,1 C 3,2 km/h (1 Bft)
23.05.2019 03:34 6,1 C 99 % 1019,5 hPa 0,0 l/m 0,0 km/h (0 Bft) W 268 6,0 C 6,1 C 0,0 km/h (0 Bft)
23.05.2019 03:33 6,1 C 99 % 1019,6 hPa 0,0 l/m 0,0 km/h (0 Bft) W 268 6,0 C 6,1 C 0,0 km/h (0 Bft)
23.05.2019 03:32 6,0 C 99 % 1019,7 hPa 0,0 l/m 0,0 km/h (0 Bft) W 268 5,9 C 6,0 C 0,0 km/h (0 Bft)
23.05.2019 03:31 6,0 C 99 % 1019,7 hPa 0,0 l/m 0,0 km/h (0 Bft) W 268 5,9 C 6,0 C 0,0 km/h (0 Bft)
23.05.2019 03:30 5,9 C 99 % 1019,6 hPa 0,0 l/m 0,5 km/h (0 Bft) W 268 5,8 C 5,9 C 3,2 km/h (1 Bft)
23.05.2019 03:29 5,9 C 99 % 1019,6 hPa 0,0 l/m 0,4 km/h (0 Bft) W 268 5,8 C 5,9 C 3,2 km/h (1 Bft)
23.05.2019 03:28 5,9 C 99 % 1019,6 hPa 0,0 l/m 3,3 km/h (1 Bft) W 268 5,8 C 5,9 C 9,7 km/h (2 Bft)
23.05.2019 03:27 5,9 C 99 % 1019,6 hPa 0,0 l/m 0,1 km/h (0 Bft) NW 311 5,8 C 5,9 C 1,6 km/h (1 Bft)
23.05.2019 03:26 5,9 C 99 % 1019,6 hPa 0,0 l/m 0,9 km/h (0 Bft) NW 311 5,8 C 5,9 C 4,8 km/h (1 Bft)
23.05.2019 03:25 5,9 C 99 % 1019,7 hPa 0,0 l/m 2,0 km/h (1 Bft) NW 305 5,8 C 5,9 C 6,4 km/h (2 Bft)
23.05.2019 03:24 5,9 C 99 % 1019,6 hPa 0,0 l/m 1,1 km/h (1 Bft) W-NW 284 5,8 C 5,9 C 4,8 km/h (1 Bft)
23.05.2019 03:23 5,9 C 99 % 1019,5 hPa 0,0 l/m 1,2 km/h (1 Bft) W-NW 285 5,8 C 5,9 C 3,2 km/h (1 Bft)
23.05.2019 03:22 5,9 C 99 % 1019,6 hPa 0,0 l/m 1,7 km/h (1 Bft) N-NW 331 5,8 C 5,9 C 9,7 km/h (2 Bft)
23.05.2019 03:21 5,9 C 99 % 1019,6 hPa 0,0 l/m 0,1 km/h (0 Bft) N-NW 331 5,8 C 5,9 C 1,6 km/h (1 Bft)
23.05.2019 03:20 5,9 C 99 % 1019,6 hPa 0,0 l/m 1,6 km/h (1 Bft) N-NW 331 5,8 C 5,9 C 4,8 km/h (1 Bft)
23.05.2019 03:19 5,9 C 99 % 1019,5 hPa 0,0 l/m 2,1 km/h (1 Bft) N-NW 331 5,8 C 5,9 C 12,9 km/h (3 Bft)
23.05.2019 03:18 5,9 C 99 % 1019,6 hPa 0,0 l/m 0,7 km/h (0 Bft) NW 319 5,8 C 5,9 C 3,2 km/h (1 Bft)
23.05.2019 03:17 5,9 C 99 % 1019,5 hPa 0,0 l/m 1,0 km/h (0 Bft) NW 319 5,8 C 5,9 C 4,8 km/h (1 Bft)
23.05.2019 03:16 5,9 C 99 % 1019,6 hPa 0,0 l/m 3,3 km/h (1 Bft) N-NW 342 5,8 C 5,9 C 6,4 km/h (2 Bft)
23.05.2019 03:15 5,9 C 99 % 1019,6 hPa 0,0 l/m 0,7 km/h (0 Bft) NW 311 5,8 C 5,9 C 4,8 km/h (1 Bft)
23.05.2019 03:14 5,9 C 99 % 1019,6 hPa 0,0 l/m 0,7 km/h (0 Bft) W-NW 300 5,8 C 5,9 C 3,2 km/h (1 Bft)
23.05.2019 03:13 5,9 C 99 % 1019,6 hPa 0,0 l/m 0,4 km/h (0 Bft) W-NW 303 5,8 C 5,9 C 1,6 km/h (1 Bft)
23.05.2019 03:12 5,9 C 99 % 1019,6 hPa 0,0 l/m 0,4 km/h (0 Bft) NW 304 5,8 C 5,9 C 3,2 km/h (1 Bft)
23.05.2019 03:11 5,9 C 99 % 1019,6 hPa 0,0 l/m 0,7 km/h (0 Bft) W-NW 303 5,8 C 5,9 C 3,2 km/h (1 Bft)
23.05.2019 03:10 5,9 C 99 % 1019,6 hPa 0,0 l/m 1,1 km/h (1 Bft) W-NW 301 5,8 C 5,9 C 6,4 km/h (2 Bft)
23.05.2019 03:09 5,9 C 99 % 1019,5 hPa 0,0 l/m 0,0 km/h (0 Bft) W 269 5,8 C 5,9 C 0,0 km/h (0 Bft)
23.05.2019 03:08 5,9 C 99 % 1019,5 hPa 0,0 l/m 0,0 km/h (0 Bft) W 269 5,8 C 5,9 C 0,0 km/h (0 Bft)
23.05.2019 03:07 5,9 C 99 % 1019,5 hPa 0,0 l/m 0,1 km/h (0 Bft) W 269 5,8 C 5,9 C 1,6 km/h (1 Bft)
23.05.2019 03:06 5,9 C 99 % 1019,5 hPa 0,0 l/m 0,0 km/h (0 Bft) W 269 5,8 C 5,9 C 0,0 km/h (0 Bft)
23.05.2019 03:05 5,9 C 99 % 1019,5 hPa 0,0 l/m 0,0 km/h (0 Bft) W 269 5,8 C 5,9 C 0,0 km/h (0 Bft)
23.05.2019 03:04 5,9 C 99 % 1019,6 hPa 0,0 l/m 0,1 km/h (0 Bft) W 269 5,8 C 5,9 C 1,6 km/h (1 Bft)
23.05.2019 03:03 5,9 C 99 % 1019,6 hPa 0,0 l/m 0,0 km/h (0 Bft) W 269 5,8 C 5,9 C 0,0 km/h (0 Bft)
23.05.2019 03:02 5,9 C 99 % 1019,6 hPa 0,0 l/m 0,7 km/h (0 Bft) W 269 5,8 C 5,9 C 3,2 km/h (1 Bft)
23.05.2019 03:01 5,9 C 99 % 1019,5 hPa 0,0 l/m 0,7 km/h (0 Bft) W 268 5,8 C 5,9 C 4,8 km/h (1 Bft)
23.05.2019 03:00 5,9 C 99 % 1019,5 hPa 0,0 l/m 1,1 km/h (1 Bft) N-NW 327 5,8 C 5,9 C 4,8 km/h (1 Bft)
23.05.2019 02:59 6,0 C 99 % 1019,5 hPa 0,0 l/m 2,4 km/h (1 Bft) NW 313 5,9 C 6,0 C 6,4 km/h (2 Bft)
23.05.2019 02:58 5,9 C 99 % 1019,5 hPa 0,0 l/m 1,1 km/h (1 Bft) W 279 5,8 C 5,9 C 4,8 km/h (1 Bft)
23.05.2019 02:57 6,0 C 99 % 1019,6 hPa 0,0 l/m 0,3 km/h (0 Bft) N-NW 329 5,9 C 6,0 C 1,6 km/h (1 Bft)
23.05.2019 02:56 6,0 C 99 % 1019,5 hPa 0,0 l/m 0,0 km/h (0 Bft) N-NW 329 5,9 C 6,0 C 0,0 km/h (0 Bft)
23.05.2019 02:55 6,0 C 99 % 1019,6 hPa 0,0 l/m 0,0 km/h (0 Bft) N-NW 329 5,9 C 6,0 C 0,0 km/h (0 Bft)
23.05.2019 02:54 6,1 C 99 % 1019,6 hPa 0,0 l/m 1,9 km/h (1 Bft) N-NW 329 6,0 C 6,1 C 4,8 km/h (1 Bft)
23.05.2019 02:53 6,1 C 99 % 1019,5 hPa 0,0 l/m 0,1 km/h (0 Bft) N-NW 329 6,0 C 6,1 C 1,6 km/h (1 Bft)
23.05.2019 02:52 6,1 C 99 % 1019,5 hPa 0,0 l/m 3,1 km/h (1 Bft) N-NW 329 6,0 C 6,1 C 8,0 km/h (2 Bft)
23.05.2019 02:51 6,1 C 99 % 1019,4 hPa 0,0 l/m 0,0 km/h (0 Bft) NW 319 6,0 C 6,1 C 0,0 km/h (0 Bft)
23.05.2019 02:50 6,1 C 99 % 1019,6 hPa 0,0 l/m 0,5 km/h (0 Bft) NW 319 6,0 C 6,1 C 4,8 km/h (1 Bft)
23.05.2019 02:49 6,1 C 99 % 1019,5 hPa 0,0 l/m 0,1 km/h (0 Bft) NW 319 6,0 C 6,1 C 1,6 km/h (1 Bft)
23.05.2019 02:48 6,1 C 99 % 1019,5 hPa 0,0 l/m 2,2 km/h (1 Bft) NW 319 6,0 C 6,1 C 4,8 km/h (1 Bft)
23.05.2019 02:47 6,1 C 99 % 1019,5 hPa 0,0 l/m 3,2 km/h (1 Bft) N 5 6,0 C 6,1 C 8,0 km/h (2 Bft)
23.05.2019 02:46 6,1 C 99 % 1019,4 hPa 0,0 l/m 3,2 km/h (1 Bft) N-NW 338 6,0 C 6,1 C 6,4 km/h (2 Bft)
23.05.2019 02:45 6,2 C 99 % 1019,5 hPa 0,0 l/m 0,1 km/h (0 Bft) N-NW 334 6,1 C 6,2 C 1,6 km/h (1 Bft)
23.05.2019 02:44 6,2 C 99 % 1019,5 hPa 0,0 l/m 0,9 km/h (0 Bft) N-NW 334 6,1 C 6,2 C 3,2 km/h (1 Bft)
23.05.2019 02:43 6,2 C 99 % 1019,5 hPa 0,0 l/m 1,2 km/h (1 Bft) N-NW 336 6,1 C 6,2 C 8,0 km/h (2 Bft)
23.05.2019 02:42 6,2 C 99 % 1019,5 hPa 0,0 l/m 0,8 km/h (0 Bft) NW 325 6,1 C 6,2 C 4,8 km/h (1 Bft)
23.05.2019 02:41 6,2 C 99 % 1019,5 hPa 0,0 l/m 2,3 km/h (1 Bft) NW 325 6,1 C 6,2 C 6,4 km/h (2 Bft)
23.05.2019 02:40 6,2 C 99 % 1019,4 hPa 0,0 l/m 1,6 km/h (1 Bft) W-NW 303 6,1 C 6,2 C 4,8 km/h (1 Bft)
23.05.2019 02:39 6,2 C 99 % 1019,4 hPa 0,0 l/m 1,7 km/h (1 Bft) W-NW 299 6,1 C 6,2 C 4,8 km/h (1 Bft)
23.05.2019 02:38 6,2 C 99 % 1019,4 hPa 0,0 l/m 3,8 km/h (1 Bft) N-NW 345 6,1 C 6,2 C 6,4 km/h (2 Bft)
_ Min-Zeit 04:12 05:00 05:00 - 19:19 - - 04:12 01:16 19:19
Minimum _ 5,7 C 99 % 1012,5 hPa - 0,0 km/h (0 Bft) - - 5,6 C 5,1 C 0,0 km/h (0 Bft)
_ Max-Zeit 16:30 05:00 04:04 05:00 01:16 - - 16:30 16:30 07:00
Maximum _ 9,8 C 99 % 1019,8 hPa 0,4 l/m 11,6 km/h
N (2 Bft)
- - 9,5 C 9,6 C 25,7 km/h
N-NW (4 Bft)
Durchschnitt _ 8,3 C 99 % 1016,7 hPa #5,4 l/m 2,3 km/h (1 Bft) N - 8,2 C 8,3 C 13,4 km/h (3 Bft)
(C) Wetterstation Hinterwies